^^
Meteo Knjazevac Station Historical Data
Daily Summary for February 27, 2021 Units:  Metric    English   Both
Daily Weekly Monthly Yearly Custom
  High: Low: Average:
Temperature: 4.5 °C 1.5 °C 2.6 °C
Dew Point: 1 °C -0.6 °C 0.2 °C
Humidity: 90% 78% 84%
Wind Speed: 9.7km/h 0km/h 3.1km/h
Wind Gust: 12.9km/h - -
Wind- - WNW
Pressure: 1024.9 hPa 1024.3 hPa -
Precipitation: 0 mm    
Historical Graphs
 
 
Tabular Data for February 27, 2021
Time Temperature Dew Point Pressure Wind Wind Speed Wind Gust Humidity Rainfall Rate (Hourly) solar Conditions
00:00 4.5 °C 1 °C 1024.9 hPa WNW 3.2 km/h 8 km/h 78% 0 mm 0 W/m2
00:10 4.2 °C 0.7 °C 1024.9 hPa West 4.8 km/h 9.7 km/h 78% 0 mm 0 W/m2
00:20 4.1 °C 0.8 °C 1024.9 hPa WNW 3.2 km/h 9.7 km/h 79% 0 mm 0 W/m2
00:30 4 °C 0.7 °C 1024.9 hPa West 1.6 km/h 4.8 km/h 79% 0 mm 0 W/m2
00:40 3.5 °C 0.2 °C 1024.9 hPa West 3.2 km/h 4.8 km/h 79% 0 mm 0 W/m2
00:50 3.3 °C 0.2 °C 1024.9 hPa Calm   8 km/h 80% 0 mm 0 W/m2
01:00 3.2 °C 0.3 °C 1024.9 hPa WNW 1.6 km/h 4.8 km/h 81% 0 mm 0 W/m2
01:10 3 °C 0.1 °C 1024.9 hPa West 3.2 km/h 6.4 km/h 81% 0 mm 0 W/m2
01:20 2.9 °C 0.3 °C 1024.9 hPa West 3.2 km/h 8 km/h 83% 0 mm 0 W/m2
01:30 2.9 °C 0.3 °C 1024.9 hPa West 1.6 km/h 6.4 km/h 83% 0 mm 0 W/m2
01:40 2.9 °C 0.3 °C 1024.9 hPa West 3.2 km/h 6.4 km/h 83% 0 mm 0 W/m2
01:50 3 °C 0.4 °C 1024.6 hPa NW 1.6 km/h 6.4 km/h 83% 0 mm 0 W/m2
02:00 2.8 °C 0.2 °C 1024.6 hPa NW 1.6 km/h 4.8 km/h 83% 0 mm 0 W/m2
02:10 2.7 °C 0.3 °C 1024.6 hPa WNW 1.6 km/h 4.8 km/h 84% 0 mm 0 W/m2
02:20 2.5 °C 0.1 °C 1024.6 hPa WNW 1.6 km/h 6.4 km/h 84% 0 mm 0 W/m2
02:30 2.4 °C -0.1 °C 1024.6 hPa WNW 3.2 km/h 6.4 km/h 84% 0 mm 0 W/m2
02:40 2.3 °C 0.1 °C 1024.6 hPa WNW 1.6 km/h 6.4 km/h 85% 0 mm 0 W/m2
02:50 2.2 °C -0.2 °C 1024.6 hPa WNW 1.6 km/h 4.8 km/h 84% 0 mm 0 W/m2
03:00 2 °C -0.3 °C 1024.6 hPa WNW 3.2 km/h 6.4 km/h 85% 0 mm 0 W/m2
03:10 1.8 °C -0.4 °C 1024.6 hPa West 3.2 km/h 8 km/h 85% 0 mm 0 W/m2
03:20 1.7 °C -0.4 °C 1024.6 hPa WNW 3.2 km/h 8 km/h 86% 0 mm 0 W/m2
03:40 1.5 °C -0.6 °C 1024.6 hPa West 4.8 km/h 9.7 km/h 86% 0 mm 0 W/m2
03:50 1.6 °C -0.2 °C 1024.6 hPa West 4.8 km/h 9.7 km/h 88% 0 mm 0 W/m2
04:00 1.8 °C 0.2 °C 1024.3 hPa West 9.7 km/h 12.9 km/h 89% 0 mm 0 W/m2
04:10 1.8 °C 0.2 °C 1024.3 hPa West 1.6 km/h 12.9 km/h 89% 0 mm 0 W/m2
04:20 1.7 °C 0.1 °C 1024.3 hPa West 4.8 km/h 8 km/h 89% 0 mm 0 W/m2
04:30 1.7 °C 0.1 °C 1024.6 hPa West 3.2 km/h 9.7 km/h 89% 0 mm 0 W/m2
04:40 1.6 °C 0 °C 1024.6 hPa West 4.8 km/h 9.7 km/h 89% 0 mm 0 W/m2
04:50 1.8 °C 0.3 °C 1024.3 hPa West 4.8 km/h 9.7 km/h 90% 0 mm 0 W/m2
Knjazevac, Serbia
Compliments of Weather Underground - 2 mb